sensor_id;sensor_type;location;lat;lon;timestamp;pressure;altitude;pressure_sealevel;temperature;humidity
72024;BME280;59889;50.700;5.440;2023-06-01T00:01:38;100559.85;;;27.20;27.04
72024;BME280;59889;50.700;5.440;2023-06-01T00:04:04;100560.85;;;26.67;27.34
72024;BME280;59889;50.700;5.440;2023-06-01T00:06:30;100562.49;;;26.69;27.32
72024;BME280;59889;50.700;5.440;2023-06-01T00:08:56;100564.49;;;27.04;27.23
72024;BME280;59889;50.700;5.440;2023-06-01T00:11:21;100563.51;;;26.48;27.28
72024;BME280;59889;50.700;5.440;2023-06-01T00:13:47;100564.99;;;26.62;27.40
72024;BME280;59889;50.700;5.440;2023-06-01T00:16:13;100564.35;;;26.92;27.36
72024;BME280;59889;50.700;5.440;2023-06-01T00:18:39;100563.65;;;26.72;27.31
72024;BME280;59889;50.700;5.440;2023-06-01T00:21:05;100565.79;;;27.36;27.20
72024;BME280;59889;50.700;5.440;2023-06-01T00:23:31;100563.60;;;26.97;27.34
72024;BME280;59889;50.700;5.440;2023-06-01T00:25:57;100564.60;;;26.63;27.43
72024;BME280;59889;50.700;5.440;2023-06-01T00:28:23;100562.90;;;26.83;27.24
72024;BME280;59889;50.700;5.440;2023-06-01T00:30:48;100564.81;;;27.08;27.24
72024;BME280;59889;50.700;5.440;2023-06-01T00:33:14;100562.03;;;27.50;27.07
72024;BME280;59889;50.700;5.440;2023-06-01T00:35:40;100562.22;;;26.83;27.49
72024;BME280;59889;50.700;5.440;2023-06-01T00:38:06;100562.35;;;27.19;27.14
72024;BME280;59889;50.700;5.440;2023-06-01T00:40:32;100561.48;;;26.99;27.35
72024;BME280;59889;50.700;5.440;2023-06-01T00:42:57;100564.76;;;26.68;27.41
72024;BME280;59889;50.700;5.440;2023-06-01T00:45:23;100564.69;;;26.68;27.42
72024;BME280;59889;50.700;5.440;2023-06-01T00:47:49;100567.22;;;27.09;27.28
72024;BME280;59889;50.700;5.440;2023-06-01T00:50:15;100566.67;;;26.88;27.27
72024;BME280;59889;50.700;5.440;2023-06-01T00:52:42;100566.68;;;26.96;27.41
72024;BME280;59889;50.700;5.440;2023-06-01T00:55:08;100567.45;;;27.24;27.14
72024;BME280;59889;50.700;5.440;2023-06-01T00:57:33;100567.15;;;27.14;27.25
72024;BME280;59889;50.700;5.440;2023-06-01T00:59:58;100567.28;;;27.00;27.36
72024;BME280;59889;50.700;5.440;2023-06-01T01:02:23;100570.07;;;27.00;27.13
72024;BME280;59889;50.700;5.440;2023-06-01T01:04:48;100572.17;;;27.32;27.32
72024;BME280;59889;50.700;5.440;2023-06-01T01:07:19;100574.46;;;27.10;27.29
72024;BME280;59889;50.700;5.440;2023-06-01T01:09:46;100576.24;;;27.16;27.25
72024;BME280;59889;50.700;5.440;2023-06-01T01:12:09;100575.15;;;27.21;27.23
72024;BME280;59889;50.700;5.440;2023-06-01T01:14:36;100575.16;;;26.77;27.36
72024;BME280;59889;50.700;5.440;2023-06-01T01:17:02;100575.65;;;27.14;27.26
72024;BME280;59889;50.700;5.440;2023-06-01T01:19:37;100575.94;;;26.94;27.49
72024;BME280;59889;50.700;5.440;2023-06-01T01:21:57;100574.27;;;27.28;27.16
72024;BME280;59889;50.700;5.440;2023-06-01T01:24:23;100574.96;;;27.21;27.20
72024;BME280;59889;50.700;5.440;2023-06-01T01:26:52;100572.24;;;26.68;27.49
72024;BME280;59889;50.700;5.440;2023-06-01T01:29:09;100572.21;;;27.26;27.17
72024;BME280;59889;50.700;5.440;2023-06-01T01:31:33;100569.87;;;27.21;27.25
72024;BME280;59889;50.700;5.440;2023-06-01T01:33:59;100571.53;;;27.03;27.34
72024;BME280;59889;50.700;5.440;2023-06-01T01:36:25;100571.83;;;26.85;27.35
72024;BME280;59889;50.700;5.440;2023-06-01T01:38:50;100572.65;;;27.13;27.30
72024;BME280;59889;50.700;5.440;2023-06-01T01:41:17;100571.10;;;27.05;27.35
72024;BME280;59889;50.700;5.440;2023-06-01T01:43:43;100569.79;;;27.04;27.39
72024;BME280;59889;50.700;5.440;2023-06-01T01:46:18;100571.94;;;27.12;27.36
72024;BME280;59889;50.700;5.440;2023-06-01T01:48:37;100576.15;;;27.07;27.39
72024;BME280;59889;50.700;5.440;2023-06-01T01:51:05;100576.52;;;26.93;27.53
72024;BME280;59889;50.700;5.440;2023-06-01T01:53:26;100573.45;;;26.94;27.51
72024;BME280;59889;50.700;5.440;2023-06-01T01:55:52;100575.91;;;26.70;27.53
72024;BME280;59889;50.700;5.440;2023-06-01T01:58:17;100574.78;;;26.91;27.57
72024;BME280;59889;50.700;5.440;2023-06-01T02:00:44;100576.48;;;26.90;27.59
72024;BME280;59889;50.700;5.440;2023-06-01T02:03:13;100575.07;;;27.05;27.44
72024;BME280;59889;50.700;5.440;2023-06-01T02:05:35;100574.45;;;26.98;27.51
72024;BME280;59889;50.700;5.440;2023-06-01T02:08:01;100570.63;;;27.02;27.47
72024;BME280;59889;50.700;5.440;2023-06-01T02:10:26;100569.11;;;27.01;27.47
72024;BME280;59889;50.700;5.440;2023-06-01T02:12:52;100568.65;;;27.02;27.47
72024;BME280;59889;50.700;5.440;2023-06-01T02:15:19;100565.96;;;27.07;27.43
72024;BME280;59889;50.700;5.440;2023-06-01T02:17:44;100564.07;;;27.02;27.47
72024;BME280;59889;50.700;5.440;2023-06-01T02:20:10;100563.76;;;26.97;27.57
72024;BME280;59889;50.700;5.440;2023-06-01T02:22:36;100565.02;;;26.83;27.43
72024;BME280;59889;50.700;5.440;2023-06-01T02:25:02;100564.40;;;27.07;27.48
72024;BME280;59889;50.700;5.440;2023-06-01T02:27:27;100564.36;;;27.00;27.49
72024;BME280;59889;50.700;5.440;2023-06-01T02:29:53;100563.31;;;27.27;27.49
72024;BME280;59889;50.700;5.440;2023-06-01T02:32:19;100565.41;;;27.08;27.44
72024;BME280;59889;50.700;5.440;2023-06-01T02:34:45;100566.06;;;27.02;27.50
72024;BME280;59889;50.700;5.440;2023-06-01T02:37:11;100565.50;;;27.25;27.52
72024;BME280;59889;50.700;5.440;2023-06-01T02:39:37;100565.92;;;27.05;27.48
72024;BME280;59889;50.700;5.440;2023-06-01T02:42:03;100564.48;;;27.01;27.53
72024;BME280;59889;50.700;5.440;2023-06-01T02:44:28;100564.23;;;27.00;27.54
72024;BME280;59889;50.700;5.440;2023-06-01T02:46:54;100566.65;;;27.04;27.49
72024;BME280;59889;50.700;5.440;2023-06-01T02:49:20;100568.96;;;27.19;27.58
72024;BME280;59889;50.700;5.440;2023-06-01T02:51:46;100571.17;;;26.84;27.72
72024;BME280;59889;50.700;5.440;2023-06-01T02:54:12;100570.98;;;27.02;27.50
72024;BME280;59889;50.700;5.440;2023-06-01T02:56:38;100572.52;;;26.97;27.60
72024;BME280;59889;50.700;5.440;2023-06-01T02:59:04;100573.66;;;27.04;27.51
72024;BME280;59889;50.700;5.440;2023-06-01T03:01:29;100573.30;;;27.01;27.57
72024;BME280;59889;50.700;5.440;2023-06-01T03:03:55;100575.09;;;27.03;27.55
72024;BME280;59889;50.700;5.440;2023-06-01T03:06:21;100578.82;;;26.95;27.64
72024;BME280;59889;50.700;5.440;2023-06-01T03:08:47;100582.73;;;26.68;27.91
72024;BME280;59889;50.700;5.440;2023-06-01T03:11:13;100582.79;;;27.21;27.61
72024;BME280;59889;50.700;5.440;2023-06-01T03:13:39;100584.75;;;26.96;27.62
72024;BME280;59889;50.700;5.440;2023-06-01T03:16:05;100584.49;;;26.96;27.63
72024;BME280;59889;50.700;5.440;2023-06-01T03:18:30;100584.68;;;26.96;27.63
72024;BME280;59889;50.700;5.440;2023-06-01T03:20:56;100585.34;;;26.68;27.69
72024;BME280;59889;50.700;5.440;2023-06-01T03:23:22;100585.96;;;26.90;27.76
72024;BME280;59889;50.700;5.440;2023-06-01T03:25:48;100588.55;;;26.97;27.63
72024;BME280;59889;50.700;5.440;2023-06-01T03:28:14;100590.62;;;27.06;27.55
72024;BME280;59889;50.700;5.440;2023-06-01T03:30:40;100591.13;;;27.00;27.59
72024;BME280;59889;50.700;5.440;2023-06-01T03:33:05;100591.72;;;26.73;27.63
72024;BME280;59889;50.700;5.440;2023-06-01T03:35:31;100591.06;;;26.88;27.73
72024;BME280;59889;50.700;5.440;2023-06-01T03:37:57;100589.67;;;26.98;27.64
72024;BME280;59889;50.700;5.440;2023-06-01T03:40:23;100590.91;;;26.93;27.71
72024;BME280;59889;50.700;5.440;2023-06-01T03:42:49;100590.97;;;26.96;27.65
72024;BME280;59889;50.700;5.440;2023-06-01T03:45:15;100591.90;;;27.08;27.82
72024;BME280;59889;50.700;5.440;2023-06-01T03:47:41;100596.60;;;26.96;27.67
72024;BME280;59889;50.700;5.440;2023-06-01T03:50:09;100598.33;;;26.87;27.77
72024;BME280;59889;50.700;5.440;2023-06-01T03:52:33;100599.14;;;26.94;27.70
72024;BME280;59889;50.700;5.440;2023-06-01T03:55:00;100599.29;;;26.90;27.76
72024;BME280;59889;50.700;5.440;2023-06-01T03:57:24;100601.76;;;26.88;27.76
72024;BME280;59889;50.700;5.440;2023-06-01T03:59:50;100600.68;;;26.93;27.71
72024;BME280;59889;50.700;5.440;2023-06-01T04:02:16;100599.30;;;27.17;27.72
72024;BME280;59889;50.700;5.440;2023-06-01T04:04:42;100600.18;;;26.50;28.15
72024;BME280;59889;50.700;5.440;2023-06-01T04:07:07;100600.14;;;26.59;28.70
72024;BME280;59889;50.700;5.440;2023-06-01T04:09:33;100599.38;;;26.65;28.77
72024;BME280;59889;50.700;5.440;2023-06-01T04:11:59;100594.56;;;26.33;28.74
72024;BME280;59889;50.700;5.440;2023-06-01T04:14:25;100595.64;;;26.52;28.71
72024;BME280;59889;50.700;5.440;2023-06-01T04:16:50;100593.55;;;26.57;28.56
72024;BME280;59889;50.700;5.440;2023-06-01T04:19:16;100593.14;;;26.40;28.66
72024;BME280;59889;50.700;5.440;2023-06-01T04:21:42;100597.15;;;26.40;28.58
72024;BME280;59889;50.700;5.440;2023-06-01T04:24:08;100599.13;;;26.31;28.59
72024;BME280;59889;50.700;5.440;2023-06-01T04:26:33;100602.81;;;26.43;28.41
72024;BME280;59889;50.700;5.440;2023-06-01T04:28:58;100600.99;;;26.38;28.46
72024;BME280;59889;50.700;5.440;2023-06-01T04:31:23;100602.64;;;26.61;28.46
72024;BME280;59889;50.700;5.440;2023-06-01T04:33:49;100599.87;;;26.45;28.59
72024;BME280;59889;50.700;5.440;2023-06-01T04:36:13;100596.92;;;26.53;28.49
72024;BME280;59889;50.700;5.440;2023-06-01T04:38:40;100595.98;;;26.33;28.43
72024;BME280;59889;50.700;5.440;2023-06-01T04:41:04;100594.25;;;26.56;28.38
72024;BME280;59889;50.700;5.440;2023-06-01T04:43:29;100598.30;;;26.35;28.38
72024;BME280;59889;50.700;5.440;2023-06-01T04:45:54;100598.53;;;26.46;28.45
72024;BME280;59889;50.700;5.440;2023-06-01T04:48:19;100603.06;;;26.20;28.45
72024;BME280;59889;50.700;5.440;2023-06-01T04:50:44;100603.54;;;26.42;28.44
72024;BME280;59889;50.700;5.440;2023-06-01T04:53:09;100604.54;;;26.46;28.37
72024;BME280;59889;50.700;5.440;2023-06-01T04:55:34;100603.24;;;26.27;28.29
72024;BME280;59889;50.700;5.440;2023-06-01T04:57:59;100602.11;;;26.37;28.38
72024;BME280;59889;50.700;5.440;2023-06-01T05:00:24;100604.49;;;26.11;28.37
72024;BME280;59889;50.700;5.440;2023-06-01T05:02:50;100605.95;;;26.47;28.21
72024;BME280;59889;50.700;5.440;2023-06-01T05:05:16;100604.50;;;26.25;28.16
72024;BME280;59889;50.700;5.440;2023-06-01T05:07:42;100602.11;;;26.32;28.05
72024;BME280;59889;50.700;5.440;2023-06-01T05:10:09;100601.90;;;26.31;28.04
72024;BME280;59889;50.700;5.440;2023-06-01T05:12:33;100601.91;;;26.29;28.04
72024;BME280;59889;50.700;5.440;2023-06-01T05:14:58;100605.75;;;26.51;28.02
72024;BME280;59889;50.700;5.440;2023-06-01T05:17:23;100604.27;;;26.53;27.99
72024;BME280;59889;50.700;5.440;2023-06-01T05:19:48;100607.02;;;26.25;28.00
72024;BME280;59889;50.700;5.440;2023-06-01T05:22:13;100605.29;;;26.45;28.01
72024;BME280;59889;50.700;5.440;2023-06-01T05:24:38;100607.15;;;26.42;27.98
72024;BME280;59889;50.700;5.440;2023-06-01T05:27:03;100609.52;;;26.39;28.02
72024;BME280;59889;50.700;5.440;2023-06-01T05:29:28;100612.34;;;26.37;27.99
72024;BME280;59889;50.700;5.440;2023-06-01T05:31:53;100617.47;;;26.45;27.93
72024;BME280;59889;50.700;5.440;2023-06-01T05:34:18;100618.37;;;26.45;27.89
72024;BME280;59889;50.700;5.440;2023-06-01T05:36:43;100617.92;;;26.39;27.95
72024;BME280;59889;50.700;5.440;2023-06-01T05:39:08;100615.21;;;26.24;28.08
72024;BME280;59889;50.700;5.440;2023-06-01T05:41:33;100617.29;;;26.32;28.00
72024;BME280;59889;50.700;5.440;2023-06-01T05:43:58;100615.21;;;26.00;28.02
72024;BME280;59889;50.700;5.440;2023-06-01T05:46:23;100616.91;;;26.30;27.96
72024;BME280;59889;50.700;5.440;2023-06-01T05:48:48;100616.18;;;26.09;27.91
72024;BME280;59889;50.700;5.440;2023-06-01T05:51:13;100617.49;;;26.47;28.00
72024;BME280;59889;50.700;5.440;2023-06-01T05:53:38;100619.30;;;26.51;27.93
72024;BME280;59889;50.700;5.440;2023-06-01T05:56:03;100621.63;;;26.03;27.90
72024;BME280;59889;50.700;5.440;2023-06-01T05:58:28;100621.30;;;26.29;27.87
72024;BME280;59889;50.700;5.440;2023-06-01T06:00:54;100618.45;;;26.41;27.74
72024;BME280;59889;50.700;5.440;2023-06-01T06:03:19;100619.59;;;26.28;27.85
72024;BME280;59889;50.700;5.440;2023-06-01T06:05:44;100618.37;;;25.97;27.90
72024;BME280;59889;50.700;5.440;2023-06-01T06:08:10;100617.69;;;26.51;27.82
72024;BME280;59889;50.700;5.440;2023-06-01T06:10:35;100621.49;;;26.22;27.84
72024;BME280;59889;50.700;5.440;2023-06-01T06:13:00;100619.74;;;26.23;27.84
72024;BME280;59889;50.700;5.440;2023-06-01T06:15:26;100620.30;;;26.28;27.77
72024;BME280;59889;50.700;5.440;2023-06-01T06:17:51;100625.94;;;26.25;27.79
72024;BME280;59889;50.700;5.440;2023-06-01T06:20:16;100628.89;;;26.50;27.76
72024;BME280;59889;50.700;5.440;2023-06-01T06:22:41;100628.77;;;26.08;27.91
72024;BME280;59889;50.700;5.440;2023-06-01T06:25:07;100633.57;;;26.45;27.76
72024;BME280;59889;50.700;5.440;2023-06-01T06:27:32;100638.07;;;26.26;27.71
72024;BME280;59889;50.700;5.440;2023-06-01T06:29:57;100636.36;;;26.21;27.76
72024;BME280;59889;50.700;5.440;2023-06-01T06:32:24;100639.09;;;26.18;27.76
72024;BME280;59889;50.700;5.440;2023-06-01T06:34:48;100635.25;;;26.55;27.63
72024;BME280;59889;50.700;5.440;2023-06-01T06:37:13;100635.83;;;26.16;27.73
72024;BME280;59889;50.700;5.440;2023-06-01T06:39:39;100631.52;;;26.50;27.64
72024;BME280;59889;50.700;5.440;2023-06-01T06:42:05;100631.94;;;26.48;27.62
72024;BME280;59889;50.700;5.440;2023-06-01T06:44:30;100631.52;;;26.34;27.52
72024;BME280;59889;50.700;5.440;2023-06-01T06:46:58;100631.41;;;26.10;27.79
72024;BME280;59889;50.700;5.440;2023-06-01T06:49:21;100633.15;;;25.97;27.74
72024;BME280;59889;50.700;5.440;2023-06-01T06:51:46;100634.73;;;26.18;27.76
72024;BME280;59889;50.700;5.440;2023-06-01T06:54:12;100635.77;;;26.07;27.60
72024;BME280;59889;50.700;5.440;2023-06-01T06:56:37;100642.39;;;26.23;27.68
72024;BME280;59889;50.700;5.440;2023-06-01T06:59:02;100647.28;;;26.45;27.68
72024;BME280;59889;50.700;5.440;2023-06-01T07:01:28;100652.68;;;26.23;27.65
72024;BME280;59889;50.700;5.440;2023-06-01T07:03:53;100656.83;;;25.98;27.64
72024;BME280;59889;50.700;5.440;2023-06-01T07:06:19;100660.17;;;26.43;27.66
72024;BME280;59889;50.700;5.440;2023-06-01T07:08:44;100658.07;;;26.18;27.67
72024;BME280;59889;50.700;5.440;2023-06-01T07:11:10;100661.86;;;26.08;27.75
72024;BME280;59889;50.700;5.440;2023-06-01T07:13:35;100657.48;;;26.26;27.55
72024;BME280;59889;50.700;5.440;2023-06-01T07:16:02;100653.69;;;26.26;27.59
72024;BME280;59889;50.700;5.440;2023-06-01T07:18:26;100652.17;;;26.24;27.58
72024;BME280;59889;50.700;5.440;2023-06-01T07:20:51;100651.47;;;26.21;27.69
72024;BME280;59889;50.700;5.440;2023-06-01T07:23:17;100655.72;;;26.70;27.44
72024;BME280;59889;50.700;5.440;2023-06-01T07:25:42;100655.57;;;26.41;27.64
72024;BME280;59889;50.700;5.440;2023-06-01T07:28:08;100653.88;;;26.27;27.77
72024;BME280;59889;50.700;5.440;2023-06-01T07:30:33;100654.90;;;26.36;27.68
72024;BME280;59889;50.700;5.440;2023-06-01T07:32:59;100656.22;;;26.30;27.73
72024;BME280;59889;50.700;5.440;2023-06-01T07:35:24;100656.94;;;26.55;27.73
72024;BME280;59889;50.700;5.440;2023-06-01T07:37:49;100656.13;;;26.58;27.70
72024;BME280;59889;50.700;5.440;2023-06-01T07:40:16;100654.01;;;26.32;27.71
72024;BME280;59889;50.700;5.440;2023-06-01T07:42:40;100657.02;;;25.98;27.82
72024;BME280;59889;50.700;5.440;2023-06-01T07:45:06;100658.65;;;26.31;27.66
72024;BME280;59889;50.700;5.440;2023-06-01T07:47:31;100658.60;;;26.33;27.64
72024;BME280;59889;50.700;5.440;2023-06-01T07:49:56;100659.18;;;26.25;27.74
72024;BME280;59889;50.700;5.440;2023-06-01T07:52:22;100659.02;;;26.03;27.97
72024;BME280;59889;50.700;5.440;2023-06-01T07:54:47;100658.34;;;26.33;27.91
72024;BME280;59889;50.700;5.440;2023-06-01T07:57:13;100657.70;;;26.34;27.79
72024;BME280;59889;50.700;5.440;2023-06-01T07:59:38;100655.40;;;26.06;27.89
72024;BME280;59889;50.700;5.440;2023-06-01T08:02:04;100654.24;;;26.22;28.00
72024;BME280;59889;50.700;5.440;2023-06-01T08:04:29;100658.69;;;26.20;28.18
72024;BME280;59889;50.700;5.440;2023-06-01T08:06:55;100655.45;;;26.17;27.98
72024;BME280;59889;50.700;5.440;2023-06-01T08:09:21;100654.19;;;26.13;28.08
72024;BME280;59889;50.700;5.440;2023-06-01T08:11:45;100655.68;;;26.23;27.94
72024;BME280;59889;50.700;5.440;2023-06-01T08:14:10;100656.66;;;26.02;27.92
72024;BME280;59889;50.700;5.440;2023-06-01T08:16:35;100655.62;;;25.90;27.98
72024;BME280;59889;50.700;5.440;2023-06-01T08:19:01;100652.90;;;26.53;27.82
72024;BME280;59889;50.700;5.440;2023-06-01T08:21:26;100653.62;;;25.66;28.24
72024;BME280;59889;50.700;5.440;2023-06-01T08:23:53;100650.46;;;26.32;27.80
72024;BME280;59889;50.700;5.440;2023-06-01T08:26:18;100649.52;;;26.04;28.07
72024;BME280;59889;50.700;5.440;2023-06-01T08:28:43;100647.35;;;26.22;27.78
72024;BME280;59889;50.700;5.440;2023-06-01T08:31:08;100648.91;;;26.40;27.78
72024;BME280;59889;50.700;5.440;2023-06-01T08:33:33;100653.93;;;26.12;27.78
72024;BME280;59889;50.700;5.440;2023-06-01T08:35:59;100658.12;;;26.49;27.60
72024;BME280;59889;50.700;5.440;2023-06-01T08:38:24;100663.65;;;26.12;27.72
72024;BME280;59889;50.700;5.440;2023-06-01T08:40:50;100668.61;;;26.14;27.53
72024;BME280;59889;50.700;5.440;2023-06-01T08:43:19;100668.80;;;26.18;27.48
72024;BME280;59889;50.700;5.440;2023-06-01T08:45:42;100673.31;;;26.05;27.62
72024;BME280;59889;50.700;5.440;2023-06-01T08:48:07;100669.03;;;26.39;27.49
72024;BME280;59889;50.700;5.440;2023-06-01T08:50:32;100668.45;;;26.16;27.48
72024;BME280;59889;50.700;5.440;2023-06-01T08:52:59;100665.97;;;26.18;27.59
72024;BME280;59889;50.700;5.440;2023-06-01T08:55:23;100662.96;;;25.95;27.39
72024;BME280;59889;50.700;5.440;2023-06-01T08:57:48;100661.39;;;25.81;27.35
72024;BME280;59889;50.700;5.440;2023-06-01T09:00:13;100655.91;;;26.04;27.27
72024;BME280;59889;50.700;5.440;2023-06-01T09:02:38;100654.60;;;25.90;27.12
72024;BME280;59889;50.700;5.440;2023-06-01T09:05:04;100654.21;;;25.78;27.08
72024;BME280;59889;50.700;5.440;2023-06-01T09:07:29;100654.75;;;25.92;26.88
72024;BME280;59889;50.700;5.440;2023-06-01T09:09:55;100653.31;;;26.04;26.80
72024;BME280;59889;50.700;5.440;2023-06-01T09:12:22;100661.75;;;26.12;26.86
72024;BME280;59889;50.700;5.440;2023-06-01T09:14:45;100654.02;;;26.13;27.00
72024;BME280;59889;50.700;5.440;2023-06-01T09:17:13;100650.88;;;26.19;27.01
72024;BME280;59889;50.700;5.440;2023-06-01T09:19:40;100648.50;;;26.38;26.88
72024;BME280;59889;50.700;5.440;2023-06-01T09:22:01;100645.53;;;26.25;26.87
72024;BME280;59889;50.700;5.440;2023-06-01T09:24:26;100643.50;;;26.51;27.03
72024;BME280;59889;50.700;5.440;2023-06-01T09:26:57;100639.71;;;26.30;27.07
72024;BME280;59889;50.700;5.440;2023-06-01T09:29:16;100639.42;;;26.28;27.06
72024;BME280;59889;50.700;5.440;2023-06-01T09:31:43;100641.59;;;26.61;27.08
72024;BME280;59889;50.700;5.440;2023-06-01T09:34:08;100635.14;;;26.27;27.14
72024;BME280;59889;50.700;5.440;2023-06-01T09:36:32;100633.28;;;26.33;27.05
72024;BME280;59889;50.700;5.440;2023-06-01T09:39:01;100637.25;;;26.55;27.11
72024;BME280;59889;50.700;5.440;2023-06-01T09:41:23;100632.96;;;26.38;27.08
72024;BME280;59889;50.700;5.440;2023-06-01T09:43:50;100631.32;;;26.64;27.11
72024;BME280;59889;50.700;5.440;2023-06-01T09:46:14;100629.98;;;26.39;27.14
72024;BME280;59889;50.700;5.440;2023-06-01T09:48:40;100629.39;;;26.31;27.19
72024;BME280;59889;50.700;5.440;2023-06-01T09:53:40;100622.76;;;26.39;27.12
72024;BME280;59889;50.700;5.440;2023-06-01T09:55:58;100621.89;;;26.64;27.09
72024;BME280;59889;50.700;5.440;2023-06-01T09:58:21;100623.52;;;26.33;27.16
72024;BME280;59889;50.700;5.440;2023-06-01T10:00:47;100621.15;;;26.57;27.17
72024;BME280;59889;50.700;5.440;2023-06-01T10:03:11;100620.13;;;26.57;27.17
72024;BME280;59889;50.700;5.440;2023-06-01T10:05:36;100619.98;;;26.22;27.52
72024;BME280;59889;50.700;5.440;2023-06-01T10:08:02;100624.80;;;26.44;27.12
72024;BME280;59889;50.700;5.440;2023-06-01T10:10:26;100625.88;;;26.65;27.14
72024;BME280;59889;50.700;5.440;2023-06-01T10:12:51;100623.80;;;26.40;27.16
72024;BME280;59889;50.700;5.440;2023-06-01T10:15:17;100621.25;;;26.67;27.11
72024;BME280;59889;50.700;5.440;2023-06-01T10:17:42;100612.84;;;26.65;27.20
72024;BME280;59889;50.700;5.440;2023-06-01T10:20:09;100609.98;;;26.43;27.29
72024;BME280;59889;50.700;5.440;2023-06-01T10:22:33;100609.26;;;26.67;27.13
72024;BME280;59889;50.700;5.440;2023-06-01T10:24:59;100605.70;;;26.51;27.07
72024;BME280;59889;50.700;5.440;2023-06-01T10:27:27;100603.03;;;26.46;27.13
72024;BME280;59889;50.700;5.440;2023-06-01T10:29:48;100601.25;;;26.48;27.13
72024;BME280;59889;50.700;5.440;2023-06-01T10:34:40;100596.86;;;26.51;27.13
72024;BME280;59889;50.700;5.440;2023-06-01T10:37:14;100591.12;;;26.52;27.17
72024;BME280;59889;50.700;5.440;2023-06-01T10:39:31;100591.90;;;26.43;27.29
72024;BME280;59889;50.700;5.440;2023-06-01T10:41:56;100586.98;;;26.60;27.38
72024;BME280;59889;50.700;5.440;2023-06-01T10:46:45;100585.55;;;26.44;27.25
72024;BME280;59889;50.700;5.440;2023-06-01T10:49:10;100583.25;;;26.69;27.19
72024;BME280;59889;50.700;5.440;2023-06-01T10:51:35;100581.59;;;26.63;27.28
72024;BME280;59889;50.700;5.440;2023-06-01T10:56:26;100575.76;;;26.46;27.31
72024;BME280;59889;50.700;5.440;2023-06-01T11:01:19;100568.80;;;26.34;27.55
72024;BME280;59889;50.700;5.440;2023-06-01T11:03:42;100565.28;;;26.35;27.49
72024;BME280;59889;50.700;5.440;2023-06-01T11:08:50;100559.52;;;26.45;27.57
72024;BME280;59889;50.700;5.440;2023-06-01T11:10:58;100557.02;;;26.40;27.71
72024;BME280;59889;50.700;5.440;2023-06-01T11:13:23;100559.36;;;26.37;27.63
72024;BME280;59889;50.700;5.440;2023-06-01T11:20:38;100549.55;;;26.46;27.82
72024;BME280;59889;50.700;5.440;2023-06-01T11:23:03;100549.46;;;25.92;27.70
72024;BME280;59889;50.700;5.440;2023-06-01T11:25:29;100541.77;;;26.32;27.91
72024;BME280;59889;50.700;5.440;2023-06-01T11:27:54;100542.19;;;26.42;27.65
72024;BME280;59889;50.700;5.440;2023-06-01T11:30:19;100540.29;;;26.44;27.51
72024;BME280;59889;50.700;5.440;2023-06-01T11:32:45;100538.56;;;26.26;27.39
72024;BME280;59889;50.700;5.440;2023-06-01T11:35:17;100537.24;;;26.47;27.43
72024;BME280;59889;50.700;5.440;2023-06-01T11:37:35;100540.19;;;26.25;27.27
72024;BME280;59889;50.700;5.440;2023-06-01T11:40:05;100538.66;;;26.15;27.24
72024;BME280;59889;50.700;5.440;2023-06-01T11:42:34;100537.22;;;26.25;27.14
72024;BME280;59889;50.700;5.440;2023-06-01T11:44:56;100542.69;;;26.42;27.09
72024;BME280;59889;50.700;5.440;2023-06-01T11:47:16;100534.86;;;26.11;26.97
72024;BME280;59889;50.700;5.440;2023-06-01T11:49:42;100533.36;;;26.45;26.82
72024;BME280;59889;50.700;5.440;2023-06-01T11:52:09;100529.99;;;26.09;26.74
72024;BME280;59889;50.700;5.440;2023-06-01T11:54:31;100529.68;;;26.43;26.50
72024;BME280;59889;50.700;5.440;2023-06-01T11:56:56;100531.78;;;26.44;26.46
72024;BME280;59889;50.700;5.440;2023-06-01T11:59:22;100532.61;;;26.20;26.40
72024;BME280;59889;50.700;5.440;2023-06-01T12:01:47;100523.83;;;26.03;26.53
72024;BME280;59889;50.700;5.440;2023-06-01T12:04:12;100524.54;;;26.28;26.28
72024;BME280;59889;50.700;5.440;2023-06-01T12:06:36;100517.46;;;26.59;26.19
72024;BME280;59889;50.700;5.440;2023-06-01T12:09:01;100518.34;;;26.45;26.40
72024;BME280;59889;50.700;5.440;2023-06-01T12:11:27;100519.15;;;26.31;26.31
72024;BME280;59889;50.700;5.440;2023-06-01T12:13:52;100515.94;;;26.57;26.19
72024;BME280;59889;50.700;5.440;2023-06-01T12:16:16;100510.77;;;26.40;26.00
72024;BME280;59889;50.700;5.440;2023-06-01T12:18:42;100505.42;;;26.35;25.98
72024;BME280;59889;50.700;5.440;2023-06-01T12:21:09;100511.82;;;26.50;25.85
72024;BME280;59889;50.700;5.440;2023-06-01T12:23:32;100506.45;;;26.48;25.87
72024;BME280;59889;50.700;5.440;2023-06-01T12:25:57;100511.11;;;26.55;25.76
72024;BME280;59889;50.700;5.440;2023-06-01T12:28:23;100510.38;;;26.36;25.80
72024;BME280;59889;50.700;5.440;2023-06-01T12:30:48;100509.84;;;26.40;25.74
72024;BME280;59889;50.700;5.440;2023-06-01T12:33:30;100513.74;;;26.48;25.95
72024;BME280;59889;50.700;5.440;2023-06-01T12:35:47;100512.46;;;26.25;26.04
72024;BME280;59889;50.700;5.440;2023-06-01T12:38:04;100514.47;;;26.38;25.94
72024;BME280;59889;50.700;5.440;2023-06-01T12:40:28;100513.93;;;26.58;25.96
72024;BME280;59889;50.700;5.440;2023-06-01T12:42:54;100508.29;;;26.35;26.13
72024;BME280;59889;50.700;5.440;2023-06-01T12:45:19;100502.54;;;26.56;25.89
72024;BME280;59889;50.700;5.440;2023-06-01T12:47:44;100505.77;;;26.32;25.84
72024;BME280;59889;50.700;5.440;2023-06-01T12:50:11;100506.35;;;26.56;25.96
72024;BME280;59889;50.700;5.440;2023-06-01T12:52:35;100510.38;;;26.52;26.03
72024;BME280;59889;50.700;5.440;2023-06-01T12:55:00;100506.30;;;26.27;26.00
72024;BME280;59889;50.700;5.440;2023-06-01T12:57:25;100505.08;;;26.65;25.78
72024;BME280;59889;50.700;5.440;2023-06-01T12:59:50;100506.93;;;26.48;25.93